createdAt,value
2023-05-21T00:01:19.274Z,5.97
2023-05-21T00:03:47.783Z,5.65
2023-05-21T00:06:16.352Z,6.30
2023-05-21T00:08:44.891Z,5.68
2023-05-21T00:11:13.297Z,6.10
2023-05-21T00:13:41.614Z,6.25
2023-05-21T01:01:37.006Z,5.95
2023-05-21T01:04:06.075Z,6.88
2023-05-21T01:06:35.452Z,6.13
2023-05-21T01:09:06.807Z,6.30
2023-05-21T01:11:43.062Z,6.28
2023-05-21T01:14:13.405Z,6.38
2023-05-21T01:48:10.117Z,6.32
2023-05-21T01:50:39.846Z,6.38
2023-05-21T01:53:08.343Z,6.05
2023-05-21T01:55:39.548Z,6.63
2023-05-21T01:58:08.718Z,6.50
2023-05-21T02:48:00.880Z,6.32
2023-05-21T02:50:32.810Z,6.43
2023-05-21T02:53:01.431Z,6.30
2023-05-21T02:55:31.071Z,6.45
2023-05-21T02:57:59.395Z,6.38
2023-05-21T03:47:19.538Z,7.20
2023-05-21T03:49:49.034Z,6.88
2023-05-21T03:52:17.348Z,7.30
2023-05-21T03:54:45.813Z,7.63
2023-05-21T03:57:14.215Z,7.53
2023-05-21T03:59:42.620Z,7.40
2023-05-21T04:46:06.030Z,6.95
2023-05-21T04:48:35.853Z,6.55
2023-05-21T04:51:05.691Z,7.22
2023-05-21T04:53:35.772Z,6.65
2023-05-21T04:56:04.209Z,7.07
2023-05-21T04:58:34.276Z,7.25
2023-05-21T05:01:04.187Z,6.75
2023-05-21T05:03:32.696Z,7.28
2023-05-21T05:06:04.214Z,7.30
2023-05-21T05:08:32.602Z,6.65
2023-05-21T05:11:01.103Z,6.57
2023-05-21T05:13:29.448Z,6.95
2023-05-21T05:15:57.753Z,6.55
2023-05-21T05:18:27.847Z,7.70
2023-05-21T05:20:56.414Z,7.43
2023-05-21T05:23:24.710Z,8.10
2023-05-21T05:25:53.296Z,7.20
2023-05-21T05:28:21.778Z,7.85
2023-05-21T05:30:50.241Z,7.22
2023-05-21T05:33:24.160Z,6.82
2023-05-21T05:35:53.908Z,7.22
2023-05-21T05:38:22.939Z,7.32
2023-05-21T05:40:51.320Z,7.47
2023-05-21T05:43:19.595Z,7.85
2023-05-21T05:45:48.908Z,7.95
2023-05-21T05:48:17.818Z,7.80
2023-05-21T05:50:46.929Z,7.80
2023-05-21T05:53:17.642Z,7.78
2023-05-21T05:55:45.926Z,8.40
2023-05-21T05:58:14.709Z,8.63
2023-05-21T06:00:59.132Z,8.15
2023-05-21T06:03:29.791Z,8.13
2023-05-21T06:05:59.284Z,8.27
2023-05-21T06:08:31.042Z,7.88
2023-05-21T06:10:59.330Z,7.78
2023-05-21T06:13:28.194Z,6.82
2023-05-21T06:15:56.483Z,7.45
2023-05-21T06:18:24.824Z,6.72
2023-05-21T06:20:53.545Z,7.97
2023-05-21T06:23:23.573Z,7.40
2023-05-21T06:25:53.552Z,7.18
2023-05-21T06:28:22.082Z,7.43
2023-05-21T06:30:51.260Z,8.23
2023-05-21T06:33:19.824Z,7.68
2023-05-21T06:35:48.520Z,7.68
2023-05-21T06:38:16.985Z,8.60
2023-05-21T06:40:47.454Z,7.35
2023-05-21T06:43:25.394Z,8.60
2023-05-21T06:46:13.987Z,8.73
2023-05-21T06:48:42.559Z,8.75
2023-05-21T06:51:11.006Z,8.40
2023-05-21T06:53:39.463Z,9.15
2023-05-21T06:56:08.432Z,8.80
2023-05-21T06:58:40.844Z,9.48
2023-05-21T07:01:09.283Z,9.82
2023-05-21T07:03:38.104Z,9.90
2023-05-21T07:06:06.724Z,10.00
2023-05-21T07:08:35.252Z,9.80
2023-05-21T07:11:03.835Z,9.88
2023-05-21T07:13:32.404Z,9.40
2023-05-21T07:16:02.190Z,10.40
2023-05-21T07:18:31.152Z,8.55
2023-05-21T07:20:59.687Z,9.40
2023-05-21T07:23:28.600Z,9.13
2023-05-21T07:25:56.947Z,9.65
2023-05-21T07:28:25.407Z,10.25
2023-05-21T07:30:53.877Z,10.18
2023-05-21T07:33:30.924Z,10.07
2023-05-21T07:35:59.363Z,9.65
2023-05-21T07:38:27.847Z,8.98
2023-05-21T07:40:56.767Z,8.65
2023-05-21T07:43:25.372Z,8.85
2023-05-21T07:45:53.883Z,9.10
2023-05-21T07:48:22.272Z,8.70
2023-05-21T07:50:58.286Z,9.18
2023-05-21T07:53:28.768Z,9.65
2023-05-21T07:55:59.581Z,9.95
2023-05-21T07:58:31.048Z,9.88
2023-05-21T08:01:00.692Z,9.60
2023-05-21T08:03:31.302Z,9.93
2023-05-21T08:06:01.188Z,10.05
2023-05-21T08:08:32.665Z,9.35
2023-05-21T08:11:01.761Z,9.90
2023-05-21T08:13:30.834Z,9.38
2023-05-21T08:15:59.361Z,10.13
2023-05-21T08:18:28.692Z,10.15
2023-05-21T08:21:00.322Z,9.23
2023-05-21T08:23:29.800Z,9.57
2023-05-21T08:26:00.882Z,9.35
2023-05-21T08:28:29.332Z,9.40
2023-05-21T08:30:58.334Z,9.57
2023-05-21T08:33:27.213Z,9.45
2023-05-21T08:35:56.144Z,10.32
2023-05-21T08:38:31.239Z,9.35
2023-05-21T08:41:02.357Z,9.55
2023-05-21T08:43:31.668Z,9.65
2023-05-21T08:46:03.618Z,8.80
2023-05-21T08:48:37.691Z,9.10
2023-05-21T08:51:07.168Z,8.85
2023-05-21T08:53:42.311Z,8.90
2023-05-21T08:56:13.064Z,9.55
2023-05-21T08:58:48.053Z,9.15
2023-05-21T09:01:21.946Z,9.15
2023-05-21T09:04:08.307Z,9.30
2023-05-21T09:06:42.408Z,9.07
2023-05-21T09:09:23.020Z,9.25
2023-05-21T09:11:51.839Z,9.27
2023-05-21T09:14:22.107Z,8.35
2023-05-21T09:17:14.047Z,8.75
2023-05-21T09:20:12.286Z,8.23
2023-05-21T09:22:45.880Z,8.63
2023-05-21T09:25:18.418Z,8.55
2023-05-21T09:27:47.152Z,8.20
2023-05-21T09:30:17.907Z,8.23
2023-05-21T09:32:47.141Z,8.30
2023-05-21T09:35:17.099Z,8.48
2023-05-21T09:37:48.283Z,8.05
2023-05-21T09:40:20.526Z,8.68
2023-05-21T09:42:50.511Z,8.63
2023-05-21T09:45:20.920Z,8.40
2023-05-21T09:47:52.224Z,8.27
2023-05-21T09:50:22.479Z,8.55
2023-05-21T09:52:53.003Z,8.00
2023-05-21T09:55:24.735Z,8.38
2023-05-21T09:57:54.023Z,8.10
2023-05-21T10:00:23.673Z,7.25
2023-05-21T10:02:56.669Z,7.63
2023-05-21T10:05:29.110Z,7.90
2023-05-21T10:08:02.299Z,7.78
2023-05-21T10:10:33.667Z,7.80
2023-05-21T10:13:07.073Z,7.78
2023-05-21T10:15:39.927Z,7.78
2023-05-21T10:18:09.759Z,7.82
2023-05-21T10:20:38.896Z,7.45
2023-05-21T10:23:09.212Z,7.75
2023-05-21T10:25:39.371Z,7.18
2023-05-21T10:28:08.311Z,7.20
2023-05-21T10:30:38.211Z,7.20
2023-05-21T10:33:07.460Z,7.25
2023-05-21T10:35:35.995Z,7.47
2023-05-21T10:38:06.113Z,7.22
2023-05-21T10:40:36.138Z,7.40
2023-05-21T10:43:32.430Z,6.95
2023-05-21T10:46:41.228Z,7.32
2023-05-21T10:49:28.138Z,7.18
2023-05-21T10:52:08.592Z,6.75
2023-05-21T10:55:18.818Z,6.57
2023-05-21T10:58:38.726Z,6.20
2023-05-21T11:01:09.127Z,7.07
2023-05-21T11:03:38.746Z,6.20
2023-05-21T11:06:08.489Z,6.35
2023-05-21T11:08:38.853Z,6.80
2023-05-21T11:11:07.521Z,6.97
2023-05-21T11:13:49.244Z,6.57
2023-05-21T11:16:22.414Z,7.22
2023-05-21T11:19:01.725Z,7.55
2023-05-21T11:21:36.122Z,6.40
2023-05-21T11:24:10.712Z,7.15
2023-05-21T11:27:04.410Z,7.00
2023-05-21T11:29:47.161Z,6.28
2023-05-21T11:32:20.644Z,5.97
2023-05-21T11:34:49.636Z,6.22
2023-05-21T11:37:27.723Z,6.40
2023-05-21T11:39:57.635Z,6.32
2023-05-21T11:42:34.207Z,6.32
2023-05-21T11:45:04.317Z,6.57
2023-05-21T11:47:34.265Z,6.07
2023-05-21T11:50:04.890Z,6.43
2023-05-21T11:52:33.773Z,6.05
2023-05-21T11:55:02.337Z,5.43
2023-05-21T11:57:31.872Z,5.72
2023-05-21T12:00:02.412Z,5.95
2023-05-21T12:02:47.735Z,6.05
2023-05-21T12:05:16.368Z,5.88
2023-05-21T12:07:50.120Z,6.13
2023-05-21T12:10:22.062Z,5.43
2023-05-21T12:12:54.853Z,6.30
2023-05-21T12:15:26.195Z,5.47
2023-05-21T12:17:57.062Z,5.35
2023-05-21T12:20:29.045Z,5.07
2023-05-21T12:22:59.910Z,5.18
2023-05-21T12:25:29.788Z,5.85
2023-05-21T12:27:58.963Z,5.25
2023-05-21T12:30:27.934Z,5.63
2023-05-21T12:33:01.918Z,5.78
2023-05-21T12:35:32.414Z,5.70
2023-05-21T12:38:03.892Z,5.38
2023-05-21T12:40:40.113Z,5.53
2023-05-21T12:43:08.856Z,5.35
2023-05-21T12:45:39.300Z,5.63
2023-05-21T12:48:09.597Z,5.40
2023-05-21T12:50:41.751Z,5.47
2023-05-21T12:53:12.014Z,4.95
2023-05-21T12:55:41.114Z,5.00
2023-05-21T12:58:09.637Z,4.88
2023-05-21T13:00:38.356Z,5.32
2023-05-21T13:03:08.477Z,5.10
2023-05-21T13:05:36.921Z,4.90
2023-05-21T13:08:05.712Z,4.97
2023-05-21T13:10:34.008Z,4.63
2023-05-21T13:13:02.674Z,5.20
2023-05-21T13:15:31.067Z,5.00
2023-05-21T13:18:01.268Z,4.88
2023-05-21T13:20:31.527Z,4.75
2023-05-21T13:22:59.911Z,4.97
2023-05-21T13:25:29.590Z,4.63
2023-05-21T13:27:58.709Z,4.72
2023-05-21T13:30:27.189Z,4.90
2023-05-21T13:32:56.004Z,4.20
2023-05-21T13:35:24.479Z,4.50
2023-05-21T13:37:54.122Z,4.30
2023-05-21T13:40:23.206Z,4.15
2023-05-21T13:42:51.819Z,4.50
2023-05-21T13:45:21.920Z,4.95
2023-05-21T13:47:50.409Z,4.65
2023-05-21T13:50:18.988Z,4.57
2023-05-21T13:52:47.575Z,4.35
2023-05-21T13:55:17.308Z,4.60
2023-05-21T13:57:45.916Z,4.50
2023-05-21T14:00:16.281Z,4.18
2023-05-21T14:02:45.784Z,4.75
2023-05-21T14:05:14.388Z,4.68
2023-05-21T14:07:43.057Z,4.75
2023-05-21T14:10:12.331Z,4.45
2023-05-21T14:12:42.414Z,4.22
2023-05-21T14:15:11.981Z,4.82
2023-05-21T14:17:42.344Z,4.85
2023-05-21T14:20:12.268Z,5.25
2023-05-21T14:22:40.774Z,4.53
2023-05-21T14:25:09.968Z,19.63
2023-05-21T14:27:38.860Z,13.00
2023-05-21T14:30:10.424Z,45.15
2023-05-21T14:32:38.780Z,122.65
2023-05-21T14:35:07.898Z,476.58
2023-05-21T14:37:36.222Z,847.20
2023-05-21T14:40:07.735Z,999.90
2023-05-21T14:42:36.733Z,979.83
2023-05-21T14:45:17.970Z,830.95
2023-05-21T14:47:50.925Z,640.78
2023-05-21T14:50:19.754Z,433.10
2023-05-21T14:52:48.206Z,303.23
2023-05-21T14:55:18.388Z,195.05
2023-05-21T14:57:46.737Z,126.38
2023-05-21T15:00:16.025Z,90.43
2023-05-21T15:02:44.731Z,71.90
2023-05-21T15:05:14.633Z,58.45
2023-05-21T15:07:42.978Z,52.22
2023-05-21T15:10:11.884Z,48.92
2023-05-21T15:12:41.033Z,52.72
2023-05-21T15:15:10.508Z,53.42
2023-05-21T15:17:38.917Z,51.20
2023-05-21T15:20:09.400Z,50.90
2023-05-21T15:22:39.538Z,47.60
2023-05-21T15:25:09.627Z,48.65
2023-05-21T15:27:38.935Z,52.45
2023-05-21T15:30:09.305Z,56.13
2023-05-21T15:32:37.874Z,53.03
2023-05-21T15:35:07.458Z,53.78
2023-05-21T15:37:35.883Z,54.78
2023-05-21T15:40:08.741Z,54.00
2023-05-21T15:42:37.069Z,53.17
2023-05-21T15:45:06.369Z,54.72
2023-05-21T15:47:34.750Z,52.13
2023-05-21T15:50:03.500Z,52.33
2023-05-21T15:52:31.921Z,52.70
2023-05-21T15:55:00.398Z,51.00
2023-05-21T15:57:30.544Z,51.88
2023-05-21T15:59:59.034Z,52.20
2023-05-21T16:02:27.541Z,49.10
2023-05-21T16:04:55.975Z,48.63
2023-05-21T16:07:25.179Z,47.72
2023-05-21T16:09:53.478Z,45.35
2023-05-21T16:12:21.872Z,44.58
2023-05-21T16:14:51.596Z,44.72
2023-05-21T16:17:20.148Z,42.47
2023-05-21T16:19:48.512Z,40.90
2023-05-21T16:22:17.137Z,40.65
2023-05-21T16:24:45.534Z,38.70
2023-05-21T16:27:13.858Z,38.80
2023-05-21T16:29:42.386Z,40.10
2023-05-21T16:32:14.010Z,40.40
2023-05-21T16:34:42.714Z,40.95
2023-05-21T16:37:11.150Z,40.00
2023-05-21T16:39:39.698Z,38.30
2023-05-21T16:42:08.073Z,40.03
2023-05-21T16:44:37.799Z,40.97
2023-05-21T16:47:06.483Z,40.08
2023-05-21T16:49:36.187Z,41.72
2023-05-21T16:52:04.709Z,39.85
2023-05-21T16:54:33.148Z,39.53
2023-05-21T16:57:01.542Z,40.25
2023-05-21T16:59:30.196Z,38.85
2023-05-21T17:01:58.763Z,41.28
2023-05-21T17:04:27.217Z,40.35
2023-05-21T17:06:56.889Z,39.78
2023-05-21T17:09:25.367Z,37.88
2023-05-21T17:11:53.858Z,37.67
2023-05-21T17:14:33.129Z,36.35
2023-05-21T17:17:03.182Z,35.55
2023-05-21T17:19:31.906Z,36.90
2023-05-21T17:22:01.691Z,35.55
2023-05-21T17:24:30.078Z,34.67
2023-05-21T17:26:58.463Z,34.58
2023-05-21T17:29:27.065Z,33.60
2023-05-21T17:31:55.508Z,33.15
2023-05-21T17:34:26.212Z,32.63
2023-05-21T17:36:55.503Z,32.67
2023-05-21T17:39:25.230Z,33.47
2023-05-21T17:41:54.064Z,31.85
2023-05-21T17:44:22.655Z,33.55
2023-05-21T17:46:52.017Z,31.67
2023-05-21T17:49:20.791Z,31.90
2023-05-21T17:51:49.468Z,34.40
2023-05-21T17:54:17.925Z,33.08
2023-05-21T17:56:47.668Z,32.50
2023-05-21T17:59:16.570Z,35.83
2023-05-21T18:01:45.454Z,44.53
2023-05-21T18:04:13.879Z,39.47
2023-05-21T18:06:42.161Z,38.50
2023-05-21T18:09:14.114Z,45.60
2023-05-21T18:11:44.754Z,69.97
2023-05-21T18:14:14.785Z,137.73
2023-05-21T18:16:43.249Z,116.32
2023-05-21T18:19:11.913Z,116.05
2023-05-21T18:21:40.346Z,113.93
2023-05-21T18:24:09.448Z,107.13
2023-05-21T18:26:37.844Z,96.32
2023-05-21T18:29:06.220Z,85.50
2023-05-21T18:31:36.050Z,76.80
2023-05-21T18:34:04.426Z,71.78
2023-05-21T18:36:38.623Z,66.32
2023-05-21T18:39:08.098Z,55.38
2023-05-21T18:41:37.197Z,37.90
2023-05-21T18:44:06.322Z,27.35
2023-05-21T18:46:36.259Z,23.63
2023-05-21T18:49:04.683Z,19.05
2023-05-21T18:51:33.131Z,16.05
2023-05-21T18:54:01.448Z,14.90
2023-05-21T18:56:29.828Z,14.65
2023-05-21T18:58:58.499Z,15.02
2023-05-21T19:01:27.520Z,13.50
2023-05-21T19:03:57.355Z,12.93
2023-05-21T19:06:27.662Z,14.05
2023-05-21T19:08:56.213Z,12.88
2023-05-21T19:11:27.482Z,12.48
2023-05-21T19:13:55.818Z,11.77
2023-05-21T19:16:24.233Z,11.65
2023-05-21T19:18:52.697Z,11.95
2023-05-21T19:21:22.798Z,11.95
2023-05-21T19:23:53.712Z,11.68
2023-05-21T19:26:23.325Z,10.95
2023-05-21T19:28:53.627Z,11.15
2023-05-21T19:31:23.474Z,10.35
2023-05-21T19:33:52.170Z,10.70
2023-05-21T19:36:22.473Z,10.43
2023-05-21T19:38:51.694Z,10.70
2023-05-21T19:41:21.552Z,10.88
2023-05-21T19:43:49.950Z,13.57
2023-05-21T19:46:20.029Z,16.73
2023-05-21T19:48:49.263Z,16.00
2023-05-21T19:51:18.050Z,15.68
2023-05-21T19:53:48.277Z,15.07
2023-05-21T19:56:16.997Z,14.27
2023-05-21T19:58:47.705Z,13.60
2023-05-21T20:01:17.451Z,12.40
2023-05-21T20:03:46.176Z,13.75
2023-05-21T20:06:16.845Z,13.50
2023-05-21T20:08:45.214Z,14.00
2023-05-21T20:11:14.988Z,15.13
2023-05-21T20:13:48.354Z,13.85
2023-05-21T20:16:18.342Z,14.48
2023-05-21T20:18:47.248Z,15.32
2023-05-21T20:21:17.479Z,14.38
2023-05-21T20:23:46.090Z,15.15
2023-05-21T20:26:16.610Z,15.43
2023-05-21T20:28:45.621Z,15.18
2023-05-21T20:31:14.160Z,13.23
2023-05-21T20:33:42.572Z,13.35
2023-05-21T20:36:11.086Z,13.50
2023-05-21T20:38:41.989Z,12.55
2023-05-21T20:41:10.529Z,13.13
2023-05-21T20:43:40.236Z,12.45
2023-05-21T20:46:08.609Z,11.70
2023-05-21T20:48:37.690Z,11.95
2023-05-21T20:51:06.869Z,12.23
2023-05-21T20:53:35.144Z,13.07
2023-05-21T20:56:07.040Z,11.45
2023-05-21T20:58:35.366Z,11.82
2023-05-21T21:01:05.113Z,11.45
2023-05-21T21:03:34.915Z,10.52
2023-05-21T21:06:04.299Z,11.55
2023-05-21T21:08:34.616Z,9.88
2023-05-21T21:11:02.934Z,9.50
2023-05-21T21:13:31.285Z,9.70
2023-05-21T21:15:59.613Z,8.73
2023-05-21T21:18:29.383Z,8.43
2023-05-21T21:20:57.863Z,9.05
2023-05-21T21:23:28.693Z,7.93
2023-05-21T21:25:58.416Z,7.45
2023-05-21T21:28:26.790Z,6.78
2023-05-21T21:30:55.181Z,7.20
2023-05-21T21:33:24.351Z,6.95
2023-05-21T21:35:54.164Z,6.78
2023-05-21T21:38:22.776Z,6.63
2023-05-21T21:40:51.347Z,6.55
2023-05-21T21:43:19.669Z,6.15
2023-05-21T21:45:47.969Z,5.85
2023-05-21T21:48:16.814Z,5.50
2023-05-21T21:50:45.346Z,5.60
2023-05-21T21:53:15.124Z,6.05
2023-05-21T21:55:43.428Z,5.72
2023-05-21T21:58:11.886Z,5.60
2023-05-21T22:00:40.460Z,5.25
2023-05-21T22:03:09.198Z,5.60
2023-05-21T22:05:38.157Z,5.03
2023-05-21T22:08:06.964Z,4.93
2023-05-21T22:10:38.240Z,4.72
2023-05-21T22:13:06.996Z,4.85
2023-05-21T22:15:35.617Z,4.43
2023-05-21T22:18:04.039Z,4.57
2023-05-21T22:20:33.082Z,4.93
2023-05-21T22:23:01.578Z,4.88
2023-05-21T22:25:29.905Z,5.63
2023-05-21T22:27:59.634Z,6.20
2023-05-21T22:30:28.010Z,7.20
2023-05-21T22:32:57.284Z,7.30
2023-05-21T22:35:26.002Z,8.02
2023-05-21T22:37:54.409Z,7.85
2023-05-21T22:40:22.814Z,7.57
2023-05-21T22:42:51.455Z,7.35
2023-05-21T22:45:21.855Z,6.63
2023-05-21T22:47:51.832Z,7.00
2023-05-21T22:50:20.173Z,6.88
2023-05-21T22:52:48.672Z,5.88
2023-05-21T22:55:17.260Z,6.07
2023-05-21T22:57:46.072Z,5.60
2023-05-21T23:00:14.913Z,5.70
2023-05-21T23:02:44.665Z,4.80
2023-05-21T23:05:13.133Z,4.45
2023-05-21T23:07:42.003Z,5.07
2023-05-21T23:10:11.700Z,4.88
2023-05-21T23:12:40.820Z,4.30
2023-05-21T23:15:10.761Z,4.15
2023-05-21T23:17:39.797Z,4.20
2023-05-21T23:20:11.049Z,4.57
2023-05-21T23:22:39.414Z,4.30
2023-05-21T23:25:09.614Z,4.65
2023-05-21T23:27:37.984Z,4.00
2023-05-21T23:30:08.893Z,3.95
2023-05-21T23:32:37.368Z,3.85
2023-05-21T23:35:07.507Z,3.90
2023-05-21T23:37:37.205Z,4.38
2023-05-21T23:40:06.922Z,3.53
2023-05-21T23:42:35.825Z,3.58
2023-05-21T23:45:04.400Z,3.80
